createdAt,value
2019-02-10T00:00:56.425Z,4.23
2019-02-10T00:03:26.147Z,4.00
2019-02-10T00:06:24.279Z,7.10
2019-02-10T00:09:07.484Z,7.03
2019-02-10T00:11:56.317Z,3.93
2019-02-10T00:14:45.206Z,5.33
2019-02-10T00:17:34.145Z,4.47
2019-02-10T00:20:22.933Z,5.43
2019-02-10T00:23:11.788Z,7.20
2019-02-10T00:26:00.603Z,8.00
2019-02-10T00:28:49.520Z,5.53
2019-02-10T00:31:38.429Z,6.80
2019-02-10T00:34:27.250Z,5.47
2019-02-10T00:37:16.065Z,7.87
2019-02-10T00:40:05.664Z,3.90
2019-02-10T00:42:54.466Z,7.13
2019-02-10T00:45:36.235Z,4.73
2019-02-10T00:48:25.047Z,6.13
2019-02-10T00:51:16.961Z,4.73
2019-02-10T00:54:05.872Z,6.97
2019-02-10T00:56:54.728Z,4.27
2019-02-10T00:59:43.549Z,9.03
2019-02-10T01:02:32.452Z,8.83
2019-02-10T01:05:21.379Z,7.17
2019-02-10T01:08:10.257Z,3.43
2019-02-10T01:10:59.117Z,5.53
2019-02-10T01:13:48.017Z,7.87
2019-02-10T01:16:36.885Z,3.87
2019-02-10T01:19:25.772Z,6.53
2019-02-10T01:22:14.708Z,7.10
2019-02-10T01:28:32.098Z,7.37
2019-02-10T01:31:20.966Z,6.83
2019-02-10T01:34:09.885Z,4.73
2019-02-10T01:36:58.721Z,8.83
2019-02-10T01:39:47.604Z,7.47
2019-02-10T01:42:36.517Z,7.30
2019-02-10T01:45:25.422Z,5.50
2019-02-10T01:48:07.078Z,7.30
2019-02-10T01:50:55.926Z,6.53
2019-02-10T01:53:44.762Z,7.60
2019-02-10T01:56:33.611Z,5.57
2019-02-10T01:59:22.404Z,6.20
2019-02-10T02:02:11.328Z,5.57
2019-02-10T02:08:15.158Z,11.30
2019-02-10T02:11:04.009Z,10.27
2019-02-10T02:13:52.840Z,8.03
2019-02-10T02:16:41.687Z,7.07
2019-02-10T02:19:30.486Z,8.47
2019-02-10T02:22:19.340Z,6.13
2019-02-10T02:25:29.097Z,5.43
2019-02-10T02:28:17.908Z,4.70
2019-02-10T02:31:06.822Z,5.37
2019-02-10T02:33:48.441Z,5.30
2019-02-10T02:39:33.557Z,6.73
2019-02-10T02:42:22.344Z,6.87
2019-02-10T02:45:32.110Z,6.03
2019-02-10T02:48:13.852Z,7.40
2019-02-10T02:51:02.720Z,4.37
2019-02-10T02:53:51.564Z,5.03
2019-02-10T02:56:40.383Z,7.17
2019-02-10T02:59:29.291Z,6.63
2019-02-10T03:02:18.141Z,6.97
2019-02-10T03:05:27.879Z,7.47
2019-02-10T03:08:16.720Z,7.00
2019-02-10T03:11:05.616Z,5.03
2019-02-10T03:14:06.633Z,5.03
2019-02-10T03:16:45.051Z,5.40
2019-02-10T03:19:33.861Z,9.10
2019-02-10T03:22:22.773Z,5.90
2019-02-10T03:25:11.672Z,5.47
2019-02-10T03:28:00.486Z,7.30
2019-02-10T03:30:49.422Z,5.83
2019-02-10T03:33:38.220Z,5.43
2019-02-10T03:36:46.387Z,4.83
2019-02-10T03:39:35.184Z,5.20
2019-02-10T03:42:24.012Z,4.13
2019-02-10T03:45:07.571Z,5.47
2019-02-10T03:47:56.413Z,4.23
2019-02-10T03:50:45.332Z,3.77
2019-02-10T03:53:34.224Z,3.83
2019-02-10T03:56:23.104Z,5.20
2019-02-10T03:59:12.036Z,4.47
2019-02-10T04:02:00.897Z,7.33
2019-02-10T04:05:08.763Z,4.03
2019-02-10T04:07:57.613Z,6.30
2019-02-10T04:13:55.836Z,4.80
2019-02-10T04:16:44.643Z,2.70
2019-02-10T04:19:33.472Z,4.83
2019-02-10T04:22:22.372Z,4.57
2019-02-10T04:25:03.648Z,6.60
2019-02-10T04:27:52.502Z,2.73
2019-02-10T04:30:41.332Z,4.67
2019-02-10T04:33:30.136Z,5.30
2019-02-10T04:36:18.965Z,3.13
2019-02-10T04:39:07.886Z,5.67
2019-02-10T04:41:56.788Z,5.47
2019-02-10T04:44:45.642Z,3.47
2019-02-10T04:47:34.436Z,3.30
2019-02-10T04:50:16.086Z,3.43
2019-02-10T04:53:05.013Z,4.33
2019-02-10T04:56:14.050Z,2.77
2019-02-10T04:59:02.943Z,3.83
2019-02-10T05:01:51.823Z,4.50
2019-02-10T05:04:40.654Z,3.67
2019-02-10T05:07:29.450Z,4.50
2019-02-10T05:10:18.287Z,4.00
2019-02-10T05:13:07.094Z,5.40
2019-02-10T05:16:16.860Z,3.23
2019-02-10T05:19:05.693Z,3.57
2019-02-10T05:21:54.554Z,2.17
2019-02-10T05:24:43.365Z,5.33
2019-02-10T05:27:32.257Z,4.00
2019-02-10T05:30:21.071Z,5.10
2019-02-10T05:33:09.925Z,3.53
2019-02-10T05:35:58.727Z,4.20
2019-02-10T05:38:47.558Z,3.93
2019-02-10T05:41:36.377Z,2.47
2019-02-10T05:44:25.317Z,2.47
2019-02-10T05:47:06.833Z,2.53
2019-02-10T05:49:55.654Z,2.40
2019-02-10T05:52:44.506Z,2.10
2019-02-10T05:55:33.304Z,0.93
2019-02-10T05:58:22.152Z,3.13
2019-02-10T06:01:49.713Z,2.40
2019-02-10T06:04:59.416Z,2.70
2019-02-10T06:07:48.263Z,2.80
2019-02-10T06:10:37.092Z,1.20
2019-02-10T06:13:25.924Z,0.97
2019-02-10T06:16:14.744Z,1.63
2019-02-10T06:19:03.611Z,1.33
2019-02-10T06:21:52.468Z,1.40
2019-02-10T06:24:41.348Z,1.40
2019-02-10T06:27:30.201Z,1.27
2019-02-10T06:30:19.008Z,2.20
2019-02-10T06:33:07.928Z,1.40
2019-02-10T06:35:49.430Z,0.73
2019-02-10T06:38:38.275Z,0.87
2019-02-10T06:41:27.075Z,0.50
2019-02-10T06:43:56.573Z,1.57
2019-02-10T06:46:45.379Z,1.43
2019-02-10T06:49:34.237Z,1.10
2019-02-10T06:52:23.059Z,0.77
2019-02-10T06:55:12.053Z,1.00
2019-02-10T06:58:00.848Z,1.27
2019-02-10T07:01:08.748Z,1.27
2019-02-10T07:04:18.772Z,1.67
2019-02-10T07:07:07.611Z,0.70
2019-02-10T07:09:56.406Z,1.23
2019-02-10T07:13:06.180Z,0.57
2019-02-10T07:16:33.696Z,1.13
2019-02-10T07:20:01.250Z,0.90
2019-02-10T07:23:11.041Z,0.87
2019-02-10T07:25:59.892Z,0.70
2019-02-10T07:28:48.693Z,0.50
2019-02-10T07:31:29.996Z,0.50
2019-02-10T07:34:47.781Z,1.00
2019-02-10T07:37:51.178Z,1.33
2019-02-10T07:41:00.947Z,1.20
2019-02-10T07:44:10.675Z,0.83
2019-02-10T07:47:20.460Z,0.57
2019-02-10T07:50:30.172Z,0.80
2019-02-10T07:53:43.102Z,0.50
2019-02-10T07:56:52.910Z,2.30
2019-02-10T08:00:02.665Z,1.10
2019-02-10T08:03:12.446Z,1.20
2019-02-10T08:06:22.164Z,0.87
2019-02-10T08:09:05.850Z,1.30
2019-02-10T08:12:15.584Z,0.80
2019-02-10T08:15:25.348Z,0.67
2019-02-10T08:18:35.069Z,0.60
2019-02-10T08:21:44.825Z,0.80
2019-02-10T08:24:54.620Z,0.60
2019-02-10T08:28:04.345Z,0.97
2019-02-10T08:31:31.900Z,0.80
2019-02-10T08:34:41.642Z,1.60
2019-02-10T08:38:09.186Z,0.60
2019-02-10T08:41:18.958Z,0.53
2019-02-10T08:44:28.727Z,0.57
2019-02-10T08:47:56.521Z,0.63
2019-02-10T08:51:24.007Z,0.80
2019-02-10T08:54:13.390Z,0.77
2019-02-10T08:57:02.232Z,0.70
2019-02-10T08:59:51.062Z,0.60
2019-02-10T09:02:40.029Z,0.80
2019-02-10T09:05:28.939Z,1.53
2019-02-10T09:08:17.753Z,0.87
2019-02-10T09:11:06.833Z,0.80
2019-02-10T09:13:55.776Z,1.07
2019-02-10T09:16:44.676Z,1.27
2019-02-10T09:19:33.517Z,1.07
2019-02-10T09:22:22.355Z,1.60
2019-02-10T09:25:32.128Z,1.50
2019-02-10T09:28:20.946Z,1.27
2019-02-10T09:31:09.859Z,1.30
2019-02-10T09:33:58.754Z,1.53
2019-02-10T09:36:47.595Z,0.70
2019-02-10T09:39:36.520Z,1.37
2019-02-10T09:42:25.370Z,1.33
2019-02-10T09:45:14.396Z,0.80
2019-02-10T09:48:03.270Z,1.30
2019-02-10T09:50:52.119Z,1.63
2019-02-10T09:53:21.707Z,1.00
2019-02-10T09:56:10.772Z,0.40
2019-02-10T09:58:59.686Z,0.77
2019-02-10T10:01:48.478Z,0.60
2019-02-10T10:04:37.374Z,0.40
2019-02-10T10:07:26.186Z,0.50
2019-02-10T10:10:15.112Z,1.07
2019-02-10T10:13:03.918Z,1.63
2019-02-10T10:15:52.859Z,0.43
2019-02-10T10:18:41.766Z,0.30
2019-02-10T10:21:30.646Z,0.40
2019-02-10T10:27:27.383Z,0.60
2019-02-10T10:33:32.032Z,0.40
2019-02-10T10:36:22.321Z,0.50
2019-02-10T10:39:11.166Z,3.97
2019-02-10T10:41:59.998Z,1.90
2019-02-10T10:44:48.847Z,3.73
2019-02-10T10:47:37.794Z,2.43
2019-02-10T10:50:19.749Z,2.03
2019-02-10T10:53:08.571Z,1.00
2019-02-10T10:55:57.402Z,0.90
2019-02-10T10:58:46.256Z,0.97
2019-02-10T11:01:35.118Z,1.00
2019-02-10T11:04:23.957Z,1.17
2019-02-10T11:07:12.889Z,1.93
2019-02-10T11:10:01.750Z,2.10
2019-02-10T11:12:50.588Z,2.40
2019-02-10T11:15:39.419Z,5.67
2019-02-10T11:18:28.233Z,2.50
2019-02-10T11:21:17.073Z,1.30
2019-02-10T11:24:12.688Z,2.67
2019-02-10T11:27:01.582Z,1.63
2019-02-10T11:29:50.456Z,1.77
2019-02-10T11:32:39.425Z,1.27
2019-02-10T11:35:28.272Z,0.70
2019-02-10T11:38:17.123Z,1.20
2019-02-10T11:41:17.813Z,1.30
2019-02-10T11:43:56.658Z,1.30
2019-02-10T11:46:45.501Z,0.83
2019-02-10T11:49:26.864Z,0.50
2019-02-10T11:52:15.710Z,1.70
2019-02-10T11:58:33.424Z,1.80
2019-02-10T12:01:22.231Z,0.93
2019-02-10T12:04:11.076Z,1.60
2019-02-10T12:06:59.916Z,0.60
2019-02-10T12:09:51.782Z,0.60
2019-02-10T12:12:39.450Z,1.10
2019-02-10T12:15:28.459Z,0.70
2019-02-10T12:18:10.034Z,0.60
2019-02-10T12:20:58.886Z,0.70
2019-02-10T12:23:47.674Z,0.53
2019-02-10T12:26:36.529Z,0.60
2019-02-10T12:29:25.341Z,1.00
2019-02-10T12:32:14.206Z,0.40
2019-02-10T12:35:03.007Z,0.50
2019-02-10T12:37:51.937Z,0.40
2019-02-10T12:40:40.769Z,0.60
2019-02-10T12:43:29.796Z,0.40
2019-02-10T12:46:18.652Z,0.57
2019-02-10T12:49:07.553Z,0.53
2019-02-10T12:51:49.820Z,2.00
2019-02-10T12:54:38.678Z,0.67
2019-02-10T12:57:27.602Z,0.70
2019-02-10T13:00:35.739Z,0.60
2019-02-10T13:03:24.603Z,0.83
2019-02-10T13:06:13.587Z,1.87
2019-02-10T13:11:58.621Z,0.50
2019-02-10T13:14:48.819Z,1.00
2019-02-10T13:17:37.704Z,0.60
2019-02-10T13:20:26.588Z,0.60
2019-02-10T13:23:15.525Z,0.50
2019-02-10T13:26:04.407Z,0.60
2019-02-10T13:28:53.262Z,0.50
2019-02-10T13:34:51.581Z,0.67
2019-02-10T13:37:40.596Z,0.40
2019-02-10T13:40:29.445Z,0.80
2019-02-10T13:43:18.370Z,0.50
2019-02-10T13:46:07.233Z,0.53
2019-02-10T13:48:56.112Z,0.40
2019-02-10T13:51:37.572Z,0.97
2019-02-10T13:54:26.501Z,1.10
2019-02-10T13:57:15.308Z,0.67
2019-02-10T14:03:18.873Z,0.90
2019-02-10T14:06:07.742Z,0.90
2019-02-10T14:08:56.581Z,1.27
2019-02-10T14:11:45.423Z,0.87
2019-02-10T14:17:30.093Z,1.30
2019-02-10T14:23:47.815Z,0.70
2019-02-10T14:26:36.731Z,1.67
2019-02-10T14:29:25.651Z,1.50
2019-02-10T14:32:14.551Z,0.87
2019-02-10T14:35:03.554Z,0.57
2019-02-10T14:37:52.469Z,0.57
2019-02-10T14:40:41.418Z,0.63
2019-02-10T14:43:30.247Z,0.40
2019-02-10T14:46:19.144Z,0.50
2019-02-10T14:49:07.928Z,0.50
2019-02-10T14:51:37.533Z,0.50
2019-02-10T14:54:26.508Z,0.60
2019-02-10T14:57:15.386Z,0.50
2019-02-10T15:03:26.635Z,0.30
2019-02-10T15:06:15.578Z,0.30
2019-02-10T15:12:14.028Z,0.40
2019-02-10T15:15:02.985Z,0.30
2019-02-10T15:17:51.819Z,0.40
2019-02-10T15:20:40.687Z,0.50
2019-02-10T15:23:29.544Z,0.23
2019-02-10T15:26:18.471Z,0.50
2019-02-10T15:29:07.478Z,2.00
2019-02-10T15:31:56.266Z,1.83
2019-02-10T15:34:45.139Z,6.07
2019-02-10T15:37:33.975Z,3.17
2019-02-10T15:40:22.831Z,1.17
2019-02-10T15:43:11.768Z,0.40
2019-02-10T15:46:00.589Z,1.07
2019-02-10T15:48:49.485Z,0.50
2019-02-10T15:51:36.865Z,1.27
2019-02-10T15:54:22.134Z,1.10
2019-02-10T15:57:10.964Z,1.30
2019-02-10T15:59:59.827Z,0.57
2019-02-10T16:02:48.635Z,0.53
2019-02-10T16:05:37.480Z,0.53
2019-02-10T16:08:26.404Z,1.40
2019-02-10T16:11:15.302Z,0.90
2019-02-10T16:14:04.180Z,1.03
2019-02-10T16:16:53.007Z,0.70
2019-02-10T16:19:42.032Z,0.67
2019-02-10T16:22:30.841Z,1.10
2019-02-10T16:25:19.772Z,1.07
2019-02-10T16:28:08.663Z,0.60
2019-02-10T16:30:57.518Z,0.57
2019-02-10T16:33:46.334Z,0.80
2019-02-10T16:36:35.196Z,0.40
2019-02-10T16:39:24.002Z,0.70
2019-02-10T16:42:13.450Z,1.63
2019-02-10T16:45:03.518Z,0.57
2019-02-10T16:47:52.393Z,0.60
2019-02-10T16:50:33.743Z,0.80
2019-02-10T16:53:22.573Z,0.60
2019-02-10T16:56:11.390Z,0.60
2019-02-10T16:59:00.350Z,1.23
2019-02-10T17:01:49.210Z,1.80
2019-02-10T17:04:38.077Z,1.27
2019-02-10T17:07:26.923Z,0.93
2019-02-10T17:10:36.692Z,1.03
2019-02-10T17:13:25.533Z,0.80
2019-02-10T17:16:14.422Z,1.40
2019-02-10T17:19:03.215Z,0.93
2019-02-10T17:21:52.129Z,1.73
2019-02-10T17:24:41.016Z,0.80
2019-02-10T17:27:30.142Z,0.80
2019-02-10T17:30:19.004Z,0.90
2019-02-10T17:33:07.909Z,1.30
2019-02-10T17:35:56.745Z,1.40
2019-02-10T17:38:45.663Z,1.10
2019-02-10T17:41:34.486Z,1.10
2019-02-10T17:44:23.315Z,2.03
2019-02-10T17:47:04.803Z,1.00
2019-02-10T17:49:46.280Z,0.80
2019-02-10T17:52:35.239Z,1.33
2019-02-10T17:55:24.241Z,1.77
2019-02-10T17:58:13.146Z,0.53
2019-02-10T18:01:02.217Z,1.67
2019-02-10T18:03:51.120Z,1.17
2019-02-10T18:06:39.917Z,1.67
2019-02-10T18:09:28.884Z,0.80
2019-02-10T18:12:17.721Z,1.67
2019-02-10T18:21:45.071Z,2.30
2019-02-10T18:24:52.903Z,1.43
2019-02-10T18:27:53.733Z,0.70
2019-02-10T18:33:57.536Z,0.90
2019-02-10T18:37:05.383Z,2.00
2019-02-10T18:40:13.527Z,2.30
2019-02-10T18:49:16.452Z,1.40
2019-02-10T18:52:05.154Z,1.57
2019-02-10T18:54:49.049Z,1.33
2019-02-10T18:57:57.103Z,2.60
2019-02-10T19:04:01.039Z,1.27
2019-02-10T19:12:58.292Z,1.27
2019-02-10T19:16:06.201Z,1.13
2019-02-10T19:19:14.165Z,1.23
2019-02-10T19:22:21.995Z,1.13
2019-02-10T19:25:29.866Z,1.03
2019-02-10T19:28:37.724Z,1.20
2019-02-10T19:31:45.603Z,0.80
2019-02-10T19:34:53.512Z,0.70
2019-02-10T19:38:01.410Z,1.37
2019-02-10T19:40:49.988Z,1.00
2019-02-10T19:43:57.858Z,1.83
2019-02-10T19:47:05.781Z,1.57
2019-02-10T19:50:13.656Z,0.90
2019-02-10T19:56:09.510Z,1.20
2019-02-10T19:59:17.381Z,1.03
2019-02-10T20:08:20.645Z,1.33
2019-02-10T20:11:28.490Z,0.70
2019-02-10T20:14:36.365Z,0.93
2019-02-10T20:17:44.220Z,1.00
2019-02-10T20:20:52.087Z,0.77
2019-02-10T20:23:59.930Z,1.07
2019-02-10T20:26:48.512Z,1.30
2019-02-10T20:29:56.451Z,0.70
2019-02-10T20:33:04.342Z,0.83
2019-02-10T20:36:05.200Z,0.80
2019-02-10T20:45:11.803Z,0.60
2019-02-10T20:48:19.673Z,0.50
2019-02-10T20:51:27.567Z,0.70
2019-02-10T20:57:31.711Z,0.53
2019-02-10T21:00:39.728Z,0.80
2019-02-10T21:03:47.626Z,0.57
2019-02-10T21:06:48.584Z,1.53
2019-02-10T21:09:56.442Z,0.60
2019-02-10T21:13:04.331Z,1.03
2019-02-10T21:15:52.954Z,0.60
2019-02-10T21:19:00.954Z,1.20
2019-02-10T21:22:08.883Z,0.93
2019-02-10T21:25:16.770Z,0.80
2019-02-10T21:28:24.734Z,0.80
2019-02-10T21:40:40.750Z,1.10
2019-02-10T21:43:48.654Z,0.90
2019-02-10T21:49:33.345Z,0.60
2019-02-10T21:52:22.217Z,0.60
2019-02-10T21:55:11.044Z,0.50
2019-02-10T21:57:52.500Z,1.23
2019-02-10T22:00:41.439Z,0.40
2019-02-10T22:03:30.249Z,0.40
2019-02-10T22:06:19.117Z,0.30
2019-02-10T22:09:07.993Z,0.43
2019-02-10T22:18:05.749Z,0.27
2019-02-10T22:20:54.550Z,0.60
2019-02-10T22:23:43.414Z,0.33
2019-02-10T22:26:32.250Z,0.20
2019-02-10T22:29:21.086Z,0.30
2019-02-10T22:32:09.988Z,0.40
2019-02-10T22:34:58.878Z,0.30
2019-02-10T22:37:47.691Z,0.30
2019-02-10T22:40:36.601Z,0.50
2019-02-10T22:43:25.408Z,0.50
2019-02-10T22:46:26.298Z,0.30
2019-02-10T22:49:04.828Z,0.43
2019-02-10T22:51:53.693Z,0.50
2019-02-10T22:54:35.482Z,0.60
2019-02-10T22:57:24.346Z,0.40
2019-02-10T23:00:53.156Z,0.40
2019-02-10T23:03:44.422Z,0.57
2019-02-10T23:06:13.921Z,0.40
2019-02-10T23:09:03.013Z,0.77
2019-02-10T23:11:51.839Z,0.50
2019-02-10T23:14:40.654Z,0.70
2019-02-10T23:17:29.518Z,0.60
2019-02-10T23:19:58.989Z,1.40
2019-02-10T23:22:47.857Z,0.50
2019-02-10T23:25:36.920Z,0.50
2019-02-10T23:28:25.769Z,0.67
2019-02-10T23:31:14.600Z,0.60
2019-02-10T23:34:03.428Z,0.63
2019-02-10T23:36:52.281Z,0.77
2019-02-10T23:39:41.174Z,1.07
2019-02-10T23:42:30.066Z,0.70
2019-02-10T23:45:11.825Z,0.60
2019-02-10T23:48:00.651Z,0.57
2019-02-10T23:50:49.525Z,0.47
2019-02-10T23:53:38.316Z,0.50
2019-02-10T23:56:27.234Z,0.50
2019-02-10T23:59:09.052Z,0.60
